createdAt,value
2022-08-12T00:00:14.393Z,43.10
2022-08-12T00:02:41.131Z,43.20
2022-08-12T00:05:07.898Z,43.10
2022-08-12T00:07:34.433Z,43.10
2022-08-12T00:10:00.941Z,43.10
2022-08-12T00:12:27.478Z,43.10
2022-08-12T00:14:53.999Z,43.10
2022-08-12T00:17:22.836Z,43.10
2022-08-12T00:19:49.801Z,43.10
2022-08-12T00:22:16.325Z,43.10
2022-08-12T00:24:42.841Z,43.10
2022-08-12T00:27:09.371Z,43.10
2022-08-12T00:29:35.897Z,43.10
2022-08-12T00:32:02.440Z,43.10
2022-08-12T00:34:30.208Z,43.30
2022-08-12T00:37:05.501Z,43.10
2022-08-12T00:39:35.324Z,43.00
2022-08-12T00:42:01.907Z,42.90
2022-08-12T00:44:28.435Z,42.80
2022-08-12T00:46:54.952Z,42.90
2022-08-12T00:49:21.467Z,42.80
2022-08-12T00:51:47.996Z,43.00
2022-08-12T00:54:14.698Z,42.70
2022-08-12T00:56:41.220Z,42.50
2022-08-12T00:59:07.737Z,42.50
2022-08-12T01:02:00.999Z,42.40
2022-08-12T01:04:22.757Z,42.50
2022-08-12T01:06:51.106Z,42.20
2022-08-12T01:09:20.269Z,42.50
2022-08-12T01:11:46.808Z,42.40
2022-08-12T01:14:13.324Z,42.30
2022-08-12T01:16:39.872Z,42.40
2022-08-12T01:19:06.375Z,42.30
2022-08-12T01:21:32.917Z,42.50
2022-08-12T01:23:59.429Z,42.50
2022-08-12T01:26:45.963Z,42.40
2022-08-12T01:29:12.472Z,42.40
2022-08-12T01:31:39.016Z,42.10
2022-08-12T01:34:05.564Z,42.40
2022-08-12T01:36:52.090Z,42.40
2022-08-12T01:39:18.644Z,42.40
2022-08-12T01:41:45.229Z,42.50
2022-08-12T01:44:20.551Z,42.50
2022-08-12T01:46:47.326Z,42.50
2022-08-12T01:49:13.865Z,42.60
2022-08-12T01:52:20.212Z,42.60
2022-08-12T01:54:28.834Z,42.70
2022-08-12T01:56:55.348Z,42.80
2022-08-12T01:59:21.889Z,42.70
2022-08-12T02:01:48.473Z,42.70
2022-08-12T02:04:15.017Z,42.60
2022-08-12T02:06:41.551Z,42.60
2022-08-12T02:09:08.348Z,42.80
2022-08-12T02:11:34.881Z,42.80
2022-08-12T02:14:01.393Z,42.80
2022-08-12T02:16:27.934Z,42.90
2022-08-12T02:18:54.443Z,42.80
2022-08-12T02:21:20.973Z,43.00
2022-08-12T02:23:47.501Z,42.80
2022-08-12T02:26:14.021Z,42.90
2022-08-12T02:28:40.556Z,42.90
2022-08-12T02:31:07.112Z,42.90
2022-08-12T02:33:33.639Z,43.00
2022-08-12T02:36:00.193Z,43.10
2022-08-12T02:38:26.703Z,43.20
2022-08-12T02:40:53.270Z,43.10
2022-08-12T02:43:19.801Z,43.10
2022-08-12T02:45:46.329Z,42.90
2022-08-12T02:48:12.852Z,43.10
2022-08-12T02:50:39.410Z,43.30
2022-08-12T02:53:05.924Z,43.20
2022-08-12T02:55:36.375Z,43.00
2022-08-12T02:58:04.251Z,43.30
2022-08-12T03:00:33.439Z,43.20
2022-08-12T03:02:59.961Z,43.10
2022-08-12T03:05:26.518Z,43.10
2022-08-12T03:07:59.434Z,43.10
2022-08-12T03:10:36.993Z,43.10
2022-08-12T03:13:04.300Z,43.20
2022-08-12T03:15:30.839Z,43.10
2022-08-12T03:18:25.733Z,43.00
2022-08-12T03:20:43.898Z,43.20
2022-08-12T03:23:28.606Z,43.10
2022-08-12T03:25:57.019Z,43.10
2022-08-12T03:28:23.923Z,42.90
2022-08-12T03:30:54.747Z,43.00
2022-08-12T03:33:23.102Z,43.00
2022-08-12T03:35:49.636Z,42.90
2022-08-12T03:38:16.219Z,42.90
2022-08-12T03:40:42.819Z,43.10
2022-08-12T03:43:11.676Z,43.00
2022-08-12T03:45:42.976Z,43.10
2022-08-12T03:48:19.538Z,43.10
2022-08-12T03:50:46.127Z,43.00
2022-08-12T03:53:12.635Z,43.00
2022-08-12T03:55:39.155Z,43.10
2022-08-12T03:58:05.666Z,43.00
2022-08-12T04:00:32.228Z,43.10
2022-08-12T04:02:58.763Z,42.90
2022-08-12T04:05:25.298Z,43.00
2022-08-12T04:08:11.803Z,42.80
2022-08-12T04:10:38.347Z,42.90
2022-08-12T04:13:04.871Z,42.80
2022-08-12T04:15:31.423Z,42.90
2022-08-12T04:18:06.620Z,42.90
2022-08-12T04:20:34.306Z,42.90
2022-08-12T04:23:00.839Z,42.90
2022-08-12T04:25:27.382Z,42.80
2022-08-12T04:27:53.896Z,43.00
2022-08-12T04:30:31.933Z,42.90
2022-08-12T04:32:59.644Z,43.00
2022-08-12T04:35:26.180Z,42.80
2022-08-12T04:37:58.270Z,42.80
2022-08-12T04:40:28.630Z,42.80
2022-08-12T04:42:55.303Z,42.80
2022-08-12T04:45:22.481Z,42.80
2022-08-12T04:47:49.258Z,42.70
2022-08-12T04:50:34.036Z,42.80
2022-08-12T04:53:02.308Z,42.90
2022-08-12T04:55:28.861Z,42.60
2022-08-12T04:57:55.381Z,42.30
2022-08-12T05:00:21.938Z,42.10
2022-08-12T05:02:48.507Z,42.00
2022-08-12T05:05:15.110Z,41.80
2022-08-12T05:07:45.801Z,41.90
2022-08-12T05:10:21.603Z,41.80
2022-08-12T05:13:00.584Z,41.70
2022-08-12T05:15:29.386Z,41.70
2022-08-12T05:17:59.765Z,41.60
2022-08-12T05:20:29.412Z,41.60
2022-08-12T05:22:57.548Z,41.80
2022-08-12T05:25:25.463Z,42.10
2022-08-12T05:27:55.409Z,42.30
2022-08-12T05:30:25.385Z,42.60
2022-08-12T05:32:51.890Z,42.50
2022-08-12T05:35:21.734Z,42.70
2022-08-12T05:37:49.102Z,42.80
2022-08-12T05:40:15.630Z,42.70
2022-08-12T05:42:42.493Z,42.70
2022-08-12T05:45:09.249Z,42.60
2022-08-12T05:47:52.294Z,42.70
2022-08-12T05:50:20.397Z,42.90
2022-08-12T05:52:48.067Z,42.90
2022-08-12T05:55:14.997Z,42.90
2022-08-12T05:57:41.544Z,42.90
2022-08-12T06:00:08.088Z,43.00
2022-08-12T06:02:34.627Z,42.80
2022-08-12T06:05:01.179Z,42.80
2022-08-12T06:08:00.241Z,42.80
2022-08-12T06:10:14.212Z,42.70
2022-08-12T06:12:42.629Z,42.80
2022-08-12T06:15:09.352Z,42.70
2022-08-12T06:17:35.873Z,42.70
2022-08-12T06:20:27.001Z,42.80
2022-08-12T06:22:48.899Z,42.70
2022-08-12T06:25:17.513Z,42.70
2022-08-12T06:28:06.302Z,42.80
2022-08-12T06:30:38.016Z,42.80
2022-08-12T06:33:20.867Z,42.90
2022-08-12T06:35:49.957Z,43.00
2022-08-12T06:38:16.829Z,42.70
2022-08-12T06:40:43.351Z,43.00
2022-08-12T06:43:09.876Z,43.10
2022-08-12T06:45:45.355Z,43.00
2022-08-12T06:48:13.179Z,43.00
2022-08-12T06:50:40.272Z,42.80
2022-08-12T06:53:06.931Z,42.90
2022-08-12T06:55:33.458Z,42.70
2022-08-12T06:58:07.725Z,42.60
2022-08-12T07:00:37.286Z,42.70
2022-08-12T07:03:16.417Z,42.70
2022-08-12T07:05:50.773Z,42.60
2022-08-12T07:08:17.598Z,42.60
2022-08-12T07:10:44.170Z,42.60
2022-08-12T07:13:10.685Z,42.60
2022-08-12T07:15:37.214Z,42.50
2022-08-12T07:18:03.832Z,42.50
2022-08-12T07:20:51.575Z,42.50
2022-08-12T07:23:16.885Z,43.30
2022-08-12T07:25:43.397Z,42.60
2022-08-12T07:28:16.400Z,42.60
2022-08-12T07:30:43.693Z,42.60
2022-08-12T07:33:10.228Z,42.60
2022-08-12T07:35:36.754Z,42.60
2022-08-12T07:38:03.278Z,42.50
2022-08-12T07:40:29.807Z,42.70
2022-08-12T07:42:56.317Z,42.60
2022-08-12T07:45:22.828Z,42.70
2022-08-12T07:50:39.368Z,42.70
2022-08-12T07:53:05.886Z,42.70
2022-08-12T07:55:32.418Z,42.90
2022-08-12T07:57:58.941Z,42.70
2022-08-12T08:00:25.473Z,42.70
2022-08-12T08:02:51.979Z,42.70
2022-08-12T08:05:18.499Z,42.70
2022-08-12T08:07:45.017Z,42.70
2022-08-12T08:10:11.604Z,42.70
2022-08-12T08:12:38.155Z,42.90
2022-08-12T08:15:04.842Z,42.80
2022-08-12T08:17:31.399Z,42.70
2022-08-12T08:20:02.622Z,43.50
2022-08-12T08:22:40.450Z,42.80
2022-08-12T08:25:34.351Z,42.80
2022-08-12T08:27:55.171Z,42.90
2022-08-12T08:30:21.681Z,42.90
2022-08-12T08:32:48.213Z,42.90
2022-08-12T08:35:14.736Z,42.90
2022-08-12T08:37:42.639Z,43.00
2022-08-12T08:40:09.753Z,43.00
2022-08-12T08:42:36.341Z,42.90
2022-08-12T08:45:02.864Z,43.10
2022-08-12T08:47:29.399Z,43.10
2022-08-12T08:49:55.915Z,43.00
2022-08-12T08:52:39.399Z,43.00
2022-08-12T08:55:07.233Z,43.10
2022-08-12T08:57:44.136Z,43.10
2022-08-12T09:00:11.010Z,43.10
2022-08-12T09:02:48.806Z,43.20
2022-08-12T09:05:24.990Z,43.10
2022-08-12T09:08:12.904Z,43.20
2022-08-12T09:10:38.807Z,43.20
2022-08-12T09:13:23.135Z,43.30
2022-08-12T09:15:56.202Z,43.20
2022-08-12T09:18:30.881Z,43.20
2022-08-12T09:21:12.645Z,43.20
2022-08-12T09:23:56.928Z,43.30
2022-08-12T09:26:28.137Z,43.20
2022-08-12T09:28:55.237Z,43.30
2022-08-12T09:32:07.128Z,43.40
2022-08-12T09:34:28.216Z,43.20
2022-08-12T09:37:00.693Z,43.20
2022-08-12T09:40:01.536Z,43.40
2022-08-12T09:42:39.185Z,43.30
2022-08-12T09:45:17.792Z,43.30
2022-08-12T09:47:45.151Z,43.30
2022-08-12T09:50:23.661Z,43.40
2022-08-12T09:52:54.356Z,43.30
2022-08-12T09:56:06.990Z,43.20
2022-08-12T09:58:57.433Z,43.30
2022-08-12T10:00:56.319Z,43.30
2022-08-12T10:03:32.632Z,43.30
2022-08-12T10:06:20.511Z,43.30
2022-08-12T10:08:52.348Z,43.20
2022-08-12T10:11:20.765Z,43.20
2022-08-12T10:13:47.891Z,43.10
2022-08-12T10:16:21.798Z,43.30
2022-08-12T10:18:52.138Z,43.10
2022-08-12T10:21:19.231Z,43.10
2022-08-12T10:23:45.996Z,43.10
2022-08-12T10:26:34.099Z,43.00
2022-08-12T10:29:02.484Z,43.10
2022-08-12T10:32:19.470Z,43.10
2022-08-12T10:34:23.519Z,43.10
2022-08-12T10:36:52.915Z,43.00
2022-08-12T10:40:08.200Z,43.00
2022-08-12T10:42:05.981Z,43.00
2022-08-12T10:44:32.534Z,43.00
2022-08-12T10:47:01.695Z,42.90
2022-08-12T10:50:03.350Z,43.00
2022-08-12T10:52:38.021Z,42.90
2022-08-12T10:55:06.915Z,43.00
2022-08-12T10:58:13.448Z,42.90
2022-08-12T11:00:30.756Z,42.90
2022-08-12T11:04:31.672Z,43.00
2022-08-12T11:07:07.083Z,42.90
2022-08-12T11:08:43.036Z,42.80
2022-08-12T11:11:13.980Z,42.80
2022-08-12T11:13:46.604Z,42.80
2022-08-12T11:16:21.850Z,42.90
2022-08-12T11:18:54.663Z,42.80
2022-08-12T11:21:22.153Z,42.70
2022-08-12T11:23:53.727Z,43.40
2022-08-12T11:26:21.551Z,42.70
2022-08-12T11:28:59.057Z,42.70
2022-08-12T11:31:40.897Z,42.70
2022-08-12T11:34:53.563Z,42.70
2022-08-12T11:37:05.312Z,42.70
2022-08-12T11:42:33.376Z,42.60
2022-08-12T11:44:59.956Z,42.60
2022-08-12T11:47:26.483Z,42.50
2022-08-12T11:49:53.025Z,42.60
2022-08-12T11:52:36.583Z,42.60
2022-08-12T11:55:06.085Z,42.40
2022-08-12T11:58:38.327Z,42.50
2022-08-12T12:03:05.705Z,42.40
2022-08-12T12:05:41.618Z,42.40
2022-08-12T12:08:38.135Z,42.30
2022-08-12T12:10:54.909Z,42.40
2022-08-12T12:13:22.976Z,42.40
2022-08-12T12:16:09.230Z,42.40
2022-08-12T12:18:36.765Z,42.40
2022-08-12T12:21:03.971Z,42.50
2022-08-12T12:23:30.953Z,42.30
2022-08-12T12:26:08.011Z,42.30
2022-08-12T12:28:36.712Z,42.20
2022-08-12T12:31:04.387Z,42.20
2022-08-12T12:33:56.927Z,42.10
2022-08-12T12:36:23.129Z,42.20
2022-08-12T12:38:53.049Z,42.00
2022-08-12T12:41:19.574Z,41.90
2022-08-12T12:43:56.434Z,42.00
2022-08-12T12:46:30.810Z,41.80
2022-08-12T12:48:57.327Z,41.70
2022-08-12T12:51:48.550Z,41.60
2022-08-12T12:54:10.844Z,41.60
2022-08-12T12:56:37.389Z,41.60
2022-08-12T12:59:04.065Z,41.60
2022-08-12T13:01:31.893Z,41.50
2022-08-12T13:04:02.001Z,41.50
2022-08-12T13:06:30.054Z,41.40
2022-08-12T13:08:56.832Z,41.40
2022-08-12T13:11:41.087Z,41.50
2022-08-12T13:14:12.539Z,41.40
2022-08-12T13:16:43.826Z,41.40
2022-08-12T13:19:10.706Z,41.30
2022-08-12T13:21:42.968Z,41.20
2022-08-12T13:24:10.742Z,41.20
2022-08-12T13:26:37.537Z,41.20
2022-08-12T13:29:04.102Z,41.20
2022-08-12T13:31:30.895Z,41.00
2022-08-12T13:34:32.660Z,41.00
2022-08-12T13:36:48.703Z,40.90
2022-08-12T13:39:16.106Z,40.80
2022-08-12T13:41:42.957Z,40.90
2022-08-12T13:44:10.636Z,40.70
2022-08-12T13:46:37.323Z,40.80
2022-08-12T13:49:04.837Z,40.50
2022-08-12T13:51:40.798Z,40.60
2022-08-12T13:54:11.537Z,41.10
2022-08-12T13:56:40.574Z,40.80
2022-08-12T13:59:08.090Z,40.50
2022-08-12T14:01:35.216Z,40.50
2022-08-12T14:04:07.385Z,40.50
2022-08-12T14:06:38.322Z,40.30
2022-08-12T14:09:17.463Z,40.20
2022-08-12T14:11:51.234Z,40.30
2022-08-12T14:14:26.293Z,40.20
2022-08-12T14:16:53.607Z,40.10
2022-08-12T14:19:24.417Z,40.30
2022-08-12T14:21:59.229Z,40.10
2022-08-12T14:24:30.847Z,40.70
2022-08-12T14:27:01.809Z,40.00
2022-08-12T14:29:55.782Z,40.00
2022-08-12T14:32:16.333Z,39.90
2022-08-12T14:34:44.075Z,39.80
2022-08-12T14:37:13.149Z,39.90
2022-08-12T14:39:57.377Z,39.60
2022-08-12T14:42:25.986Z,39.60
2022-08-12T14:44:59.217Z,39.50
2022-08-12T14:47:29.305Z,39.60
2022-08-12T14:50:41.243Z,39.60
2022-08-12T14:55:13.899Z,39.60
2022-08-12T14:58:20.997Z,39.30
2022-08-12T15:00:50.732Z,39.40
2022-08-12T15:03:18.628Z,39.30
2022-08-12T15:06:05.164Z,39.40
2022-08-12T15:08:31.647Z,39.40
2022-08-12T15:10:58.286Z,39.40
2022-08-12T15:13:24.879Z,39.70
2022-08-12T15:15:52.215Z,39.20
2022-08-12T15:18:21.652Z,39.20
2022-08-12T15:20:49.214Z,39.20
2022-08-12T15:23:18.047Z,39.20
2022-08-12T15:25:48.004Z,39.20
2022-08-12T15:28:21.446Z,39.20
2022-08-12T15:30:48.934Z,39.00
2022-08-12T15:33:18.734Z,38.90
2022-08-12T15:35:51.916Z,38.90
2022-08-12T15:38:20.135Z,39.10
2022-08-12T15:40:48.415Z,39.00
2022-08-12T15:43:15.236Z,38.70
2022-08-12T15:46:01.727Z,38.80
2022-08-12T15:48:30.535Z,38.60
2022-08-12T15:50:57.157Z,38.60
2022-08-12T15:53:23.693Z,38.60
2022-08-12T15:55:53.704Z,38.40
2022-08-12T15:58:27.388Z,38.50
2022-08-12T16:01:00.237Z,38.40
2022-08-12T16:03:26.771Z,38.40
2022-08-12T16:06:19.373Z,38.50
2022-08-12T16:08:57.400Z,38.50
2022-08-12T16:11:26.154Z,38.50
2022-08-12T16:13:52.686Z,38.40
2022-08-12T16:16:24.132Z,38.50
2022-08-12T16:18:51.652Z,38.50
2022-08-12T16:21:52.880Z,38.60
2022-08-12T16:24:04.689Z,38.60
2022-08-12T16:26:34.155Z,38.40
2022-08-12T16:29:14.731Z,38.40
2022-08-12T16:31:42.274Z,38.40
2022-08-12T16:34:10.660Z,39.00
2022-08-12T16:36:37.470Z,38.20
2022-08-12T16:39:05.725Z,38.10
2022-08-12T16:41:37.960Z,38.20
2022-08-12T16:44:06.222Z,38.30
2022-08-12T16:46:34.778Z,38.20
2022-08-12T16:49:08.795Z,38.20
2022-08-12T16:51:40.618Z,38.30
2022-08-12T16:54:14.133Z,38.20
2022-08-12T16:56:40.832Z,38.20
2022-08-12T16:59:21.557Z,38.20
2022-08-12T17:01:48.751Z,38.30
2022-08-12T17:04:15.317Z,38.30
2022-08-12T17:06:43.038Z,38.20
2022-08-12T17:09:16.955Z,38.30
2022-08-12T17:11:44.607Z,38.40
2022-08-12T17:14:11.130Z,38.20
2022-08-12T17:16:38.339Z,38.30
2022-08-12T17:19:09.132Z,38.20
2022-08-12T17:21:40.605Z,38.50
2022-08-12T17:24:18.568Z,38.20
2022-08-12T17:26:49.692Z,38.20
2022-08-12T17:29:16.812Z,38.20
2022-08-12T17:31:59.821Z,38.20
2022-08-12T17:34:28.374Z,38.10
2022-08-12T17:36:54.901Z,38.20
2022-08-12T17:39:21.544Z,38.20
2022-08-12T17:41:56.487Z,38.20
2022-08-12T17:44:24.055Z,38.10
2022-08-12T17:46:53.888Z,38.20
2022-08-12T17:50:01.879Z,38.20
2022-08-12T17:52:07.146Z,38.20
2022-08-12T17:54:36.585Z,38.10
2022-08-12T17:57:03.123Z,38.10
2022-08-12T17:59:47.816Z,38.20
2022-08-12T18:02:15.835Z,38.20
2022-08-12T18:04:42.369Z,38.20
2022-08-12T18:07:28.878Z,38.30
2022-08-12T18:09:55.396Z,38.30
2022-08-12T18:12:24.757Z,38.30
2022-08-12T18:14:53.804Z,38.40
2022-08-12T18:17:20.329Z,38.30
2022-08-12T18:20:05.723Z,38.40
2022-08-12T18:22:34.089Z,38.50
2022-08-12T18:25:02.256Z,38.40
2022-08-12T18:27:43.073Z,39.20
2022-08-12T18:30:11.603Z,38.40
2022-08-12T18:32:58.197Z,38.50
2022-08-12T18:35:38.658Z,38.50
2022-08-12T18:38:11.788Z,38.50
2022-08-12T18:40:43.187Z,38.50
2022-08-12T18:43:15.253Z,38.60
2022-08-12T18:45:47.005Z,38.60
2022-08-12T18:48:23.264Z,38.60
2022-08-12T18:50:50.222Z,38.70
2022-08-12T18:54:05.374Z,38.70
2022-08-12T18:56:07.150Z,38.80
2022-08-12T18:58:59.610Z,38.80
2022-08-12T19:02:18.908Z,38.70
2022-08-12T19:04:13.145Z,38.70
2022-08-12T19:06:39.676Z,38.90
2022-08-12T19:09:13.126Z,38.80
2022-08-12T19:11:39.648Z,38.90
2022-08-12T19:14:11.822Z,38.90
2022-08-12T19:16:41.342Z,38.90
2022-08-12T19:19:07.859Z,39.00
2022-08-12T19:21:37.240Z,38.90
2022-08-12T19:24:03.819Z,39.00
2022-08-12T19:26:31.074Z,39.00
2022-08-12T19:28:57.963Z,39.00
2022-08-12T19:31:24.472Z,39.10
2022-08-12T19:34:32.836Z,39.00
2022-08-12T19:36:57.476Z,39.20
2022-08-12T19:39:25.277Z,39.10
2022-08-12T19:42:01.193Z,39.10
2022-08-12T19:44:28.305Z,39.10
2022-08-12T19:46:54.831Z,39.20
2022-08-12T19:49:22.434Z,39.20
2022-08-12T19:51:49.080Z,39.10
2022-08-12T19:54:15.580Z,39.20
2022-08-12T19:56:42.103Z,39.30
2022-08-12T19:59:10.105Z,39.20
2022-08-12T20:01:41.143Z,39.30
2022-08-12T20:04:23.177Z,39.20
2022-08-12T20:06:51.378Z,39.30
2022-08-12T20:09:19.965Z,39.30
2022-08-12T20:12:09.482Z,39.40
2022-08-12T20:14:35.522Z,39.40
2022-08-12T20:17:02.659Z,39.50
2022-08-12T20:20:01.450Z,39.40
2022-08-12T20:22:23.378Z,39.50
2022-08-12T20:24:51.535Z,39.50
2022-08-12T20:27:28.744Z,39.50
2022-08-12T20:30:08.488Z,39.60
2022-08-12T20:32:47.616Z,39.60
2022-08-12T20:35:18.325Z,39.60
2022-08-12T20:38:06.263Z,39.60
2022-08-12T20:40:32.973Z,39.60
2022-08-12T20:42:59.552Z,39.50
2022-08-12T20:45:26.517Z,39.60
2022-08-12T20:48:11.529Z,39.60
2022-08-12T20:50:40.486Z,39.60
2022-08-12T20:53:14.065Z,39.60
2022-08-12T20:55:56.538Z,39.60
2022-08-12T20:58:23.536Z,39.60
2022-08-12T21:00:50.050Z,39.60
2022-08-12T21:03:18.165Z,39.60
2022-08-12T21:06:11.954Z,39.60
2022-08-12T21:08:31.343Z,39.70
2022-08-12T21:10:59.088Z,39.70
2022-08-12T21:13:25.841Z,39.70
2022-08-12T21:15:59.651Z,39.70
2022-08-12T21:18:27.217Z,39.70
2022-08-12T21:20:57.000Z,39.70
2022-08-12T21:23:25.507Z,39.70
2022-08-12T21:26:01.409Z,39.70
2022-08-12T21:28:31.563Z,39.70
2022-08-12T21:32:36.021Z,39.70
2022-08-12T21:34:06.317Z,39.70
2022-08-12T21:36:34.107Z,39.80
2022-08-12T21:39:01.589Z,39.80
2022-08-12T21:41:45.974Z,39.80
2022-08-12T21:45:43.644Z,39.80
2022-08-12T21:47:04.417Z,39.90
2022-08-12T21:49:53.314Z,39.80
2022-08-12T21:52:19.289Z,39.90
2022-08-12T21:54:56.379Z,40.00
2022-08-12T21:57:23.153Z,39.90
2022-08-12T21:59:50.586Z,40.00
2022-08-12T22:02:20.605Z,40.00
2022-08-12T22:04:49.805Z,40.00
2022-08-12T22:07:18.817Z,40.00
2022-08-12T22:09:45.534Z,40.10
2022-08-12T22:12:12.176Z,40.00
2022-08-12T22:14:38.717Z,41.00
2022-08-12T22:17:06.506Z,40.00
2022-08-12T22:19:37.385Z,40.00
2022-08-12T22:22:07.306Z,40.00
2022-08-12T22:24:35.106Z,39.90
2022-08-12T22:27:18.483Z,39.90
2022-08-12T22:29:48.142Z,39.90
2022-08-12T22:32:15.747Z,39.80
2022-08-12T22:34:42.352Z,39.90
2022-08-12T22:37:11.367Z,40.00
2022-08-12T22:39:46.258Z,39.90
2022-08-12T22:42:15.532Z,40.10
2022-08-12T22:44:54.736Z,40.50
2022-08-12T22:47:51.166Z,39.80
2022-08-12T22:50:08.322Z,40.10
2022-08-12T22:52:36.469Z,39.90
2022-08-12T22:55:05.537Z,40.00
2022-08-12T22:57:54.417Z,39.90
2022-08-12T23:00:27.571Z,39.90
2022-08-12T23:02:56.598Z,40.20
2022-08-12T23:05:36.942Z,39.70
2022-08-12T23:08:17.531Z,39.90
2022-08-12T23:10:45.055Z,40.00
2022-08-12T23:13:11.720Z,39.80
2022-08-12T23:15:40.943Z,40.00
2022-08-12T23:18:14.403Z,39.90
2022-08-12T23:20:43.338Z,39.90
2022-08-12T23:23:11.425Z,39.80
2022-08-12T23:25:54.754Z,39.50
2022-08-12T23:28:30.142Z,39.60
2022-08-12T23:30:57.653Z,39.50
2022-08-12T23:34:00.856Z,39.30
2022-08-12T23:36:12.734Z,39.30
2022-08-12T23:38:44.151Z,39.30
2022-08-12T23:41:11.636Z,39.60
2022-08-12T23:43:38.988Z,39.20
2022-08-12T23:46:07.197Z,39.10
2022-08-12T23:48:33.696Z,38.90
2022-08-12T23:51:00.221Z,39.20
2022-08-12T23:53:32.450Z,38.70
2022-08-12T23:55:59.217Z,38.80
2022-08-12T23:58:26.660Z,39.40
